Time;durP1;ratioP1;P1;durP2;ratioP2;P2;SDS_P1;SDS_P2;PMS_P1;PMS_P2;Temp;Humidity;BMP_temperature;BMP_pressure;BME280_temperature;BME280_humidity;BME280_pressure;Samples;Min_cycle;Max_cycle;Signal;HPM_P1;HPM_P2
2023/10/08 00:04:18;;;;;;;8.40;4.43;;;;;;;;;;4984301;23;20357;-54
2023/10/08 00:06:45;;;;;;;7.43;4.63;;;;;;;;;;5002417;28;20173;-52
2023/10/08 00:09:11;;;;;;;7.95;4.38;;;;;;;;;;4992056;28;20034;-55
2023/10/08 00:11:36;;;;;;;8.95;4.70;;;;;;;;;;5030139;23;20060;-54
2023/10/08 00:14:05;;;;;;;8.43;4.03;;;;;;;;;;5021027;28;20041;-54
2023/10/08 00:16:33;;;;;;;8.02;4.45;;;;;;;;;;5022988;28;20067;-54
2023/10/08 00:18:59;;;;;;;8.73;4.38;;;;;;;;;;5025642;28;20045;-54
2023/10/08 00:21:27;;;;;;;8.18;4.68;;;;;;;;;;5023464;28;20026;-54
2023/10/08 00:23:55;;;;;;;8.70;4.35;;;;;;;;;;5025587;23;20499;-85
2023/10/08 00:26:34;;;;;;;8.00;4.45;;;;;;;;;;5020294;28;20090;-84
2023/10/08 00:29:00;;;;;;;10.57;4.87;;;;;;;;;;5030745;28;20045;-84
2023/10/08 00:31:30;;;;;;;7.63;4.50;;;;;;;;;;5035250;28;20168;-85
2023/10/08 00:33:56;;;;;;;7.93;4.55;;;;;;;;;;5014018;28;20065;-85
2023/10/08 00:36:21;;;;;;;9.30;4.70;;;;;;;;;;5034108;28;20048;-88
2023/10/08 00:38:52;;;;;;;8.65;4.65;;;;;;;;;;5021931;28;20049;-86
2023/10/08 00:41:28;;;;;;;8.43;4.28;;;;;;;;;;5027366;28;20391;-87
2023/10/08 00:43:54;;;;;;;8.95;4.55;;;;;;;;;;5015619;28;20045;-87
2023/10/08 00:46:25;;;;;;;7.82;4.75;;;;;;;;;;5029518;28;20533;-86
2023/10/08 00:48:54;;;;;;;8.63;4.75;;;;;;;;;;5004324;28;20058;-87
2023/10/08 00:53:58;;;;;;;8.38;4.45;;;;;;;;;;5026806;28;20034;-87
2023/10/08 00:56:44;;;;;;;8.57;4.78;;;;;;;;;;5016209;28;20104;-87
2023/10/08 00:59:15;;;;;;;9.10;4.57;;;;;;;;;;5008123;28;20037;-87
2023/10/08 01:01:40;;;;;;;6.55;4.00;;;;;;;;;;5010277;28;20288;-88
2023/10/08 01:04:11;;;;;;;10.80;4.88;;;;;;;;;;4998318;28;20523;-88
2023/10/08 01:06:39;;;;;;;9.00;4.68;;;;;;;;;;5010848;28;20037;-88
2023/10/08 01:09:17;;;;;;;8.18;4.30;;;;;;;;;;5009846;28;20041;-88
2023/10/08 01:11:49;;;;;;;8.35;4.15;;;;;;;;;;5014662;28;20038;-88
2023/10/08 01:14:15;;;;;;;9.15;4.40;;;;;;;;;;5006939;28;20095;-86
2023/10/08 01:16:41;;;;;;;8.57;4.57;;;;;;;;;;5006854;28;20049;-88
2023/10/08 01:19:15;;;;;;;7.05;4.07;;;;;;;;;;5017952;28;20503;-88
2023/10/08 01:21:40;;;;;;;8.73;4.63;;;;;;;;;;5011101;28;20194;-88
2023/10/08 01:24:07;;;;;;;7.15;4.00;;;;;;;;;;5021191;28;20030;-88
2023/10/08 01:26:39;;;;;;;7.00;4.10;;;;;;;;;;5016640;28;20026;-88
2023/10/08 01:29:06;;;;;;;6.97;4.22;;;;;;;;;;5006681;28;20034;-88
2023/10/08 01:31:32;;;;;;;7.60;4.00;;;;;;;;;;5013679;28;20143;-88
2023/10/08 01:33:57;;;;;;;7.32;4.15;;;;;;;;;;5018632;28;20022;-88
2023/10/08 01:36:26;;;;;;;9.18;4.47;;;;;;;;;;5005814;28;20528;-88
2023/10/08 01:38:51;;;;;;;6.65;4.35;;;;;;;;;;4989904;28;20038;-88
2023/10/08 01:41:21;;;;;;;9.63;4.32;;;;;;;;;;5010424;28;20586;-87
2023/10/08 01:43:46;;;;;;;7.82;4.78;;;;;;;;;;5009750;28;20166;-88
2023/10/08 01:46:12;;;;;;;7.93;4.13;;;;;;;;;;5018887;28;20049;-87
2023/10/08 01:48:41;;;;;;;8.02;4.55;;;;;;;;;;5009598;28;20029;-87
2023/10/08 01:51:11;;;;;;;9.43;4.10;;;;;;;;;;5022426;28;20029;-88
2023/10/08 01:53:38;;;;;;;6.47;3.95;;;;;;;;;;5001484;28;20046;-87
2023/10/08 01:56:04;;;;;;;6.72;4.00;;;;;;;;;;5006413;28;20147;-88
2023/10/08 01:58:29;;;;;;;9.07;3.88;;;;;;;;;;5023103;28;20091;-88
2023/10/08 02:00:58;;;;;;;7.03;4.07;;;;;;;;;;5023142;28;20037;-88
2023/10/08 02:03:27;;;;;;;8.40;4.03;;;;;;;;;;5024673;28;20111;-88
2023/10/08 02:05:53;;;;;;;8.38;4.30;;;;;;;;;;5039095;28;20076;-88
2023/10/08 02:08:18;;;;;;;8.38;4.28;;;;;;;;;;5020795;28;20526;-88
2023/10/08 02:10:46;;;;;;;7.85;4.20;;;;;;;;;;5042734;28;20030;-88
2023/10/08 02:13:13;;;;;;;6.80;4.05;;;;;;;;;;5009359;28;20076;-87
2023/10/08 02:15:43;;;;;;;6.72;4.07;;;;;;;;;;5006672;28;20026;-88
2023/10/08 02:18:09;;;;;;;8.00;4.10;;;;;;;;;;5019001;28;20075;-88
2023/10/08 02:20:34;;;;;;;9.15;4.25;;;;;;;;;;5006012;28;20045;-87
2023/10/08 02:22:59;;;;;;;6.97;4.35;;;;;;;;;;5007504;28;20061;-87
2023/10/08 02:25:25;;;;;;;6.88;3.80;;;;;;;;;;5009903;28;20050;-88
2023/10/08 02:27:51;;;;;;;5.90;3.45;;;;;;;;;;5013113;28;20046;-88
2023/10/08 02:30:17;;;;;;;7.65;4.05;;;;;;;;;;5005837;28;20550;-88
2023/10/08 02:32:43;;;;;;;6.45;3.75;;;;;;;;;;5005887;28;20495;-88
2023/10/08 02:35:11;;;;;;;7.03;4.20;;;;;;;;;;5006753;28;20029;-88
2023/10/08 02:37:37;;;;;;;7.88;4.18;;;;;;;;;;5009175;28;20029;-88
2023/10/08 02:40:13;;;;;;;7.43;3.90;;;;;;;;;;5006311;28;20042;-87
2023/10/08 02:42:38;;;;;;;9.55;4.35;;;;;;;;;;5006017;28;20755;-88
2023/10/08 02:45:03;;;;;;;7.97;3.90;;;;;;;;;;5010247;28;20050;-85
2023/10/08 02:47:29;;;;;;;6.47;3.90;;;;;;;;;;5008275;28;20033;-88
2023/10/08 02:49:58;;;;;;;6.63;3.92;;;;;;;;;;5005404;28;20145;-88
2023/10/08 02:52:24;;;;;;;8.55;4.50;;;;;;;;;;5006418;28;20042;-88
2023/10/08 02:54:52;;;;;;;6.35;3.35;;;;;;;;;;5006428;28;20034;-88
2023/10/08 02:57:18;;;;;;;7.93;3.42;;;;;;;;;;5002814;28;20061;-87
2023/10/08 02:59:44;;;;;;;6.68;3.92;;;;;;;;;;5044805;28;20045;-88
2023/10/08 03:02:14;;;;;;;7.68;3.75;;;;;;;;;;5026396;28;20037;-87
2023/10/08 03:04:40;;;;;;;5.60;3.58;;;;;;;;;;5041178;28;20049;-87
2023/10/08 03:07:11;;;;;;;6.63;3.67;;;;;;;;;;5012083;28;20109;-87
2023/10/08 03:09:41;;;;;;;5.97;3.58;;;;;;;;;;5010559;28;20476;-88
2023/10/08 03:12:09;;;;;;;7.78;3.55;;;;;;;;;;5022384;28;20085;-88
2023/10/08 03:14:44;;;;;;;6.05;3.53;;;;;;;;;;5023465;28;20057;-88
2023/10/08 03:17:18;;;;;;;7.07;3.88;;;;;;;;;;5025771;28;20022;-88
2023/10/08 03:19:44;;;;;;;7.22;3.72;;;;;;;;;;5022246;28;20068;-88
2023/10/08 03:22:10;;;;;;;7.10;3.50;;;;;;;;;;5029598;28;20043;-88
2023/10/08 03:27:11;;;;;;;6.95;3.95;;;;;;;;;;5024258;28;20029;-87
2023/10/08 03:29:43;;;;;;;5.63;3.47;;;;;;;;;;5033298;28;20087;-88
2023/10/08 03:32:13;;;;;;;6.15;3.50;;;;;;;;;;5025177;28;20314;-87
2023/10/08 03:34:42;;;;;;;8.63;3.70;;;;;;;;;;5012148;28;20053;-88
2023/10/08 03:37:08;;;;;;;7.90;4.00;;;;;;;;;;5017498;28;20026;-88
2023/10/08 03:39:52;;;;;;;7.18;3.70;;;;;;;;;;5026294;28;20034;-88
2023/10/08 03:42:24;;;;;;;8.23;3.90;;;;;;;;;;5024935;28;20121;-88
2023/10/08 03:44:52;;;;;;;7.25;3.53;;;;;;;;;;5017615;28;20037;-89
2023/10/08 03:47:18;;;;;;;7.70;3.80;;;;;;;;;;5010810;28;20034;-88
2023/10/08 03:49:45;;;;;;;7.38;3.75;;;;;;;;;;5028698;28;20105;-88
2023/10/08 03:52:11;;;;;;;6.07;3.55;;;;;;;;;;5023587;28;20030;-88
2023/10/08 03:54:42;;;;;;;7.07;3.88;;;;;;;;;;5009321;28;20061;-88
2023/10/08 03:57:14;;;;;;;6.22;3.45;;;;;;;;;;5011264;28;20172;-88
2023/10/08 03:59:41;;;;;;;7.22;3.50;;;;;;;;;;5009606;28;20049;-88
2023/10/08 04:02:32;;;;;;;6.65;3.50;;;;;;;;;;5018555;28;20037;-88
2023/10/08 04:04:57;;;;;;;6.20;3.30;;;;;;;;;;5011045;28;20053;-87
2023/10/08 07:55:17;;;;;;;9.25;4.25;;;;;;;;;;4935749;28;20044;-52
2023/10/08 11:34:24;;;;;;;6.22;2.40;;;;;;;;;;5013582;28;19947;-54
2023/10/08 11:53:44;;;;;;;7.95;2.20;;;;;;;;;;4890299;28;20027;-55
2023/10/08 11:56:18;;;;;;;10.23;3.05;;;;;;;;;;4821291;28;20583;-60
2023/10/08 11:58:51;;;;;;;8.68;2.65;;;;;;;;;;4844783;28;20656;-58
2023/10/08 12:01:26;;;;;;;11.10;2.88;;;;;;;;;;4858497;28;20381;-58
2023/10/08 12:04:22;;;;;;;6.55;2.20;;;;;;;;;;4888604;28;20454;-57
2023/10/08 12:07:39;;;;;;;5.82;2.50;;;;;;;;;;4892703;28;20343;-57
2023/10/08 12:14:02;;;;;;;7.25;2.60;;;;;;;;;;4821682;29;20411;-56
2023/10/08 12:16:46;;;;;;;7.03;2.50;;;;;;;;;;4816390;29;20254;-58
2023/10/08 12:23:46;;;;;;;8.82;2.88;;;;;;;;;;4776496;29;20407;-57
2023/10/08 12:26:29;;;;;;;7.67;2.80;;;;;;;;;;4770654;29;20509;-57
2023/10/08 12:29:28;;;;;;;8.82;2.63;;;;;;;;;;4778408;29;20564;-57
2023/10/08 12:32:26;;;;;;;10.27;2.70;;;;;;;;;;4707810;29;20462;-57
2023/10/08 12:35:14;;;;;;;9.05;2.85;;;;;;;;;;4754808;29;20339;-58
2023/10/08 12:38:34;;;;;;;10.25;2.67;;;;;;;;;;4786176;29;20168;-57
2023/10/08 12:41:31;;;;;;;8.55;2.40;;;;;;;;;;4840941;29;20507;-57
2023/10/08 12:44:16;;;;;;;8.45;2.33;;;;;;;;;;4836243;29;20174;-57
2023/10/08 12:47:18;;;;;;;8.20;2.90;;;;;;;;;;4814901;29;20701;-57
2023/10/08 12:51:31;;;;;;;7.63;2.25;;;;;;;;;;4833778;29;20341;-57
2023/10/08 12:54:28;;;;;;;7.78;2.50;;;;;;;;;;4798755;29;20361;-56
2023/10/08 12:57:33;;;;;;;8.60;2.65;;;;;;;;;;4828462;29;20128;-57
2023/10/08 13:00:37;;;;;;;8.30;2.33;;;;;;;;;;4820956;29;21181;-57
2023/10/08 13:03:41;;;;;;;9.70;2.65;;;;;;;;;;4842962;29;20773;-56
2023/10/08 13:07:02;;;;;;;11.40;2.70;;;;;;;;;;4820524;29;20084;-56
2023/10/08 13:10:01;;;;;;;9.02;2.53;;;;;;;;;;4807937;29;20045;-57
2023/10/08 13:13:12;;;;;;;9.02;2.35;;;;;;;;;;4801101;29;20194;-58
2023/10/08 13:16:10;;;;;;;7.25;2.47;;;;;;;;;;4742823;29;20625;-57
2023/10/08 13:19:33;;;;;;;9.68;2.70;;;;;;;;;;4779437;29;20472;-57
2023/10/08 13:22:24;;;;;;;7.65;2.05;;;;;;;;;;4805475;29;20045;-57
2023/10/08 13:25:25;;;;;;;10.50;2.65;;;;;;;;;;4786418;29;20188;-57
2023/10/08 13:28:17;;;;;;;9.77;1.92;;;;;;;;;;4779560;29;20400;-57
2023/10/08 13:31:23;;;;;;;8.00;2.20;;;;;;;;;;4729482;29;20049;-57
2023/10/08 13:34:08;;;;;;;8.98;2.60;;;;;;;;;;4788362;29;20326;-57
2023/10/08 13:37:06;;;;;;;8.00;2.50;;;;;;;;;;4780563;29;20457;-57
2023/10/08 13:40:04;;;;;;;7.03;2.60;;;;;;;;;;4853406;29;20298;-57
2023/10/08 13:42:56;;;;;;;8.05;2.00;;;;;;;;;;4807576;29;20051;-57
2023/10/08 13:45:55;;;;;;;9.52;2.65;;;;;;;;;;4827973;29;20051;-57
2023/10/08 13:48:48;;;;;;;6.07;2.22;;;;;;;;;;4803202;29;20589;-57
2023/10/08 13:51:38;;;;;;;6.03;2.10;;;;;;;;;;4869662;28;20425;-57
2023/10/08 13:54:52;;;;;;;8.45;2.53;;;;;;;;;;4903048;28;20042;-57
2023/10/08 13:58:04;;;;;;;5.82;2.28;;;;;;;;;;4876535;28;20046;-57
2023/10/08 14:01:19;;;;;;;8.40;2.55;;;;;;;;;;4885294;28;20612;-57
2023/10/08 14:04:38;;;;;;;8.05;2.88;;;;;;;;;;4785616;29;20625;-58
2023/10/08 14:07:28;;;;;;;5.47;2.30;;;;;;;;;;4766436;29;20499;-57
2023/10/08 14:10:31;;;;;;;5.15;1.98;;;;;;;;;;4835937;29;20861;-58
2023/10/08 14:13:44;;;;;;;7.60;2.47;;;;;;;;;;4849400;29;20074;-57
2023/10/08 14:16:46;;;;;;;6.45;2.40;;;;;;;;;;4848582;29;20135;-58
2023/10/08 14:20:06;;;;;;;9.30;2.33;;;;;;;;;;4817784;29;20139;-58
2023/10/08 14:22:57;;;;;;;7.05;2.13;;;;;;;;;;4845203;29;20221;-58
2023/10/08 14:29:14;;;;;;;10.05;2.20;;;;;;;;;;4841195;29;20186;-59
2023/10/08 14:32:20;;;;;;;6.50;2.03;;;;;;;;;;4811717;29;20306;-59
2023/10/08 14:45:13;;;;;;;15.63;2.75;;;;;;;;;;4824797;29;20536;-61
2023/10/08 14:48:42;;;;;;;13.73;2.90;;;;;;;;;;4823447;29;20083;-59
2023/10/08 14:51:48;;;;;;;8.05;2.53;;;;;;;;;;4793627;29;20376;-59
2023/10/08 14:55:03;;;;;;;10.95;2.38;;;;;;;;;;4789444;29;20696;-60
2023/10/08 14:58:18;;;;;;;10.73;2.20;;;;;;;;;;4748861;29;20038;-60
2023/10/08 15:01:25;;;;;;;11.82;2.17;;;;;;;;;;4778933;29;20352;-59
2023/10/08 15:04:28;;;;;;;4.22;2.03;;;;;;;;;;4824744;29;20879;-59
2023/10/08 15:07:38;;;;;;;8.02;2.30;;;;;;;;;;4773925;29;20371;-59
2023/10/08 15:10:33;;;;;;;;;;;;;;;;;;4737540;29;20048;-60
2023/10/08 15:13:27;;;;;;;9.95;2.38;;;;;;;;;;4817322;29;20178;-59
2023/10/08 15:16:13;;;;;;;10.18;2.90;;;;;;;;;;4835984;29;20603;-59
2023/10/08 15:19:11;;;;;;;9.32;2.38;;;;;;;;;;4837168;29;20168;-59
2023/10/08 15:22:13;;;;;;;12.45;2.55;;;;;;;;;;4864175;29;20289;-59
2023/10/08 15:25:07;;;;;;;10.55;2.58;;;;;;;;;;4799257;29;20365;-59
2023/10/08 15:28:08;;;;;;;9.30;2.70;;;;;;;;;;4853105;29;20069;-59
2023/10/08 15:31:07;;;;;;;9.13;2.30;;;;;;;;;;4878587;28;20550;-59
2023/10/08 15:34:12;;;;;;;9.02;2.70;;;;;;;;;;4868386;29;20507;-59
2023/10/08 15:37:14;;;;;;;8.48;2.53;;;;;;;;;;4828622;29;20417;-59
2023/10/08 15:52:33;;;;;;;11.25;3.13;;;;;;;;;;4886141;29;20225;-57
2023/10/08 17:43:27;;;;;;;8.60;2.90;;;;;;;;;;4938299;28;20116;-59
2023/10/08 18:06:44;;;;;;;9.70;3.83;;;;;;;;;;4894863;29;20411;-56
2023/10/08 23:31:48;;;;;;;8.70;2.10;;;;;;;;;;5414948;23;20042;-72
2023/10/08 23:34:32;;;;;;;5.43;2.08;;;;;;;;;;4956233;28;21052;-70
2023/10/08 23:37:09;;;;;;;6.35;2.20;;;;;;;;;;4932588;28;20100;-71
2023/10/08 23:39:40;;;;;;;6.43;1.90;;;;;;;;;;4944355;28;20109;-71
2023/10/08 23:42:31;;;;;;;4.82;2.08;;;;;;;;;;4956495;28;20337;-71
2023/10/08 23:45:16;;;;;;;8.60;2.08;;;;;;;;;;4957224;28;20046;-76
2023/10/08 23:48:18;;;;;;;5.60;1.85;;;;;;;;;;5125884;23;20045;-85
2023/10/08 23:50:43;;;;;;;6.60;2.13;;;;;;;;;;4974891;28;20523;-85
